Grandes-Bergeronnes, Canada
Current Conditions -  °F | °C
As of 5:00 AM on Saturday 25 Oct 2014 (Local Time) from CYYY Reporting Station
Broken Clouds Broken Clouds  
Wind Chill: 36°   Ceiling: 10000
Heat Index: 39°   Visibility: 30mi
Dew Point: 28°   Wind: 5mph
Humidity: 65%   Direction: 230°SW
Pressure: 29.68"   Gusts: NA
Location:  48.25°N, 69.55°W
Report Text: CYYY 250900Z 23004KT 30SM BKN100 04/M02 A2968 RMK AC7 SLP052
Loading
Personal Weather Stations






























Interactive Weather Map
Tropical Storm Tracking
New forecast layout! Learn more

10-Day Weather Forecast

Advertisements
Track Severe Weather on mobile